Jam Airport


Codes: OIBJ/KNR
Name: Jam Airport
City: Kangan
Country: Iran
Elevation: 2173 ft.

Photos at Jam Airport


   Photos courtesy of SpottingLog. You can add your own sightings and photos by signing up for a free trial today.



No photos found.

Weather at Jam Airport


Time (UTC)DescriptionTempratureWindCloud coverageVisibilityPressureHumidity
21-Jun-2024 12:00Clear Sky41°C11 mph, SW0%10000m1001hPa16%
21-Jun-2024 15:00Clear Sky38°C4 mph, S2%10000m1000hPa19%
21-Jun-2024 18:00Clear Sky33°C2 mph, SE5%10000m999hPa23%
21-Jun-2024 21:00Clear Sky32°C2 mph, E1%10000m997hPa20%
22-Jun-2024 00:00Clear Sky31°C4 mph, N1%10000m997hPa17%
22-Jun-2024 03:00Clear Sky34°C2 mph, NE0%10000m998hPa16%
22-Jun-2024 06:00Clear Sky38°C2 mph, SE5%10000m999hPa13%
22-Jun-2024 09:00Clear Sky40°C9 mph, S0%10000m998hPa12%
22-Jun-2024 12:00Clear Sky38°C11 mph, S0%10000m998hPa20%
22-Jun-2024 15:00Clear Sky34°C4 mph, S0%10000m998hPa28%
22-Jun-2024 18:00Clear Sky32°C2 mph, NE1%10000m999hPa26%
22-Jun-2024 21:00Clear Sky32°C4 mph, NE0%10000m999hPa21%
23-Jun-2024 00:00Clear Sky31°C4 mph, NE0%10000m999hPa20%
23-Jun-2024 03:00Clear Sky34°C4 mph, NE0%10000m1000hPa16%
23-Jun-2024 06:00Clear Sky40°C4 mph, NE0%10000m1001hPa9%
23-Jun-2024 09:00Clear Sky39°C9 mph, S0%10000m1001hPa18%
23-Jun-2024 12:00Clear Sky39°C9 mph, SW0%10000m1000hPa15%
23-Jun-2024 15:00Clear Sky37°C4 mph, SW0%10000m1000hPa17%
23-Jun-2024 18:00Clear Sky35°C7 mph, NW0%10000m1001hPa14%
23-Jun-2024 21:00Clear Sky34°C9 mph, N1%10000m1000hPa16%
24-Jun-2024 00:00Clear Sky33°C7 mph, N0%10000m999hPa14%
24-Jun-2024 03:00Clear Sky35°C7 mph, N0%10000m1000hPa14%
24-Jun-2024 06:00Clear Sky40°C7 mph, NW0%10000m1000hPa9%
24-Jun-2024 09:00Clear Sky43°C7 mph, W0%10000m999hPa8%
24-Jun-2024 12:00Clear Sky40°C9 mph, W0%10000m997hPa16%
24-Jun-2024 15:00Clear Sky37°C4 mph, SW0%10000m998hPa23%
24-Jun-2024 18:00Clear Sky35°C4 mph, NW0%10000m999hPa22%
24-Jun-2024 21:00Clear Sky35°C11 mph, NW0%10000m997hPa14%
25-Jun-2024 00:00Clear Sky34°C9 mph, N0%10000m996hPa17%
25-Jun-2024 03:00Clear Sky35°C7 mph, NW0%10000m997hPa14%
25-Jun-2024 06:00Clear Sky41°C4 mph, NW0%10000m997hPa9%
25-Jun-2024 09:00Clear Sky43°C7 mph, W0%10000m997hPa8%
25-Jun-2024 12:00Clear Sky42°C9 mph, W0%10000m995hPa10%
25-Jun-2024 15:00Clear Sky38°C9 mph, W0%10000m995hPa18%
25-Jun-2024 18:00Clear Sky36°C18 mph, NW0%10000m997hPa14%
25-Jun-2024 21:00Clear Sky35°C16 mph, NW0%10000m996hPa12%
26-Jun-2024 00:00Clear Sky34°C16 mph, N0%10000m996hPa14%
26-Jun-2024 03:00Clear Sky34°C11 mph, N0%10000m997hPa13%
26-Jun-2024 06:00Clear Sky39°C20 mph, NW0%10000m997hPa10%
26-Jun-2024 09:00Clear Sky41°C16 mph, NW0%10000m995hPa10%